sensor_id;sensor_type;location;lat;lon;timestamp;P1;durP1;ratioP1;P2;durP2;ratioP2
25962;SDS011;13760;52.588;13.406;2023-05-06T00:00:48;11.23;;;5.43;;
25962;SDS011;13760;52.588;13.406;2023-05-06T00:03:13;12.02;;;6.00;;
25962;SDS011;13760;52.588;13.406;2023-05-06T00:05:38;14.60;;;5.80;;
25962;SDS011;13760;52.588;13.406;2023-05-06T00:08:04;10.93;;;5.68;;
25962;SDS011;13760;52.588;13.406;2023-05-06T00:10:30;12.65;;;6.65;;
25962;SDS011;13760;52.588;13.406;2023-05-06T00:12:55;13.73;;;6.18;;
25962;SDS011;13760;52.588;13.406;2023-05-06T00:15:21;13.95;;;5.95;;
25962;SDS011;13760;52.588;13.406;2023-05-06T00:17:46;17.45;;;6.72;;
25962;SDS011;13760;52.588;13.406;2023-05-06T00:20:12;13.52;;;6.28;;
25962;SDS011;13760;52.588;13.406;2023-05-06T00:22:38;17.35;;;7.18;;
25962;SDS011;13760;52.588;13.406;2023-05-06T00:25:04;16.10;;;7.82;;
25962;SDS011;13760;52.588;13.406;2023-05-06T00:27:30;17.98;;;8.10;;
25962;SDS011;13760;52.588;13.406;2023-05-06T00:29:56;19.02;;;8.73;;
25962;SDS011;13760;52.588;13.406;2023-05-06T00:32:22;15.23;;;7.55;;
25962;SDS011;13760;52.588;13.406;2023-05-06T00:34:47;16.00;;;7.82;;
25962;SDS011;13760;52.588;13.406;2023-05-06T00:37:13;17.45;;;8.45;;
25962;SDS011;13760;52.588;13.406;2023-05-06T00:39:38;21.50;;;8.80;;
25962;SDS011;13760;52.588;13.406;2023-05-06T00:42:04;18.13;;;8.88;;
25962;SDS011;13760;52.588;13.406;2023-05-06T00:44:29;20.42;;;9.77;;
25962;SDS011;13760;52.588;13.406;2023-05-06T00:46:55;18.00;;;9.77;;
25962;SDS011;13760;52.588;13.406;2023-05-06T00:49:22;21.27;;;10.80;;
25962;SDS011;13760;52.588;13.406;2023-05-06T00:51:48;16.17;;;10.45;;
25962;SDS011;13760;52.588;13.406;2023-05-06T00:54:15;17.05;;;10.15;;
25962;SDS011;13760;52.588;13.406;2023-05-06T00:56:40;24.02;;;11.98;;
25962;SDS011;13760;52.588;13.406;2023-05-06T00:59:06;17.30;;;12.00;;
25962;SDS011;13760;52.588;13.406;2023-05-06T01:01:32;21.98;;;11.77;;
25962;SDS011;13760;52.588;13.406;2023-05-06T01:03:58;24.05;;;12.45;;
25962;SDS011;13760;52.588;13.406;2023-05-06T01:06:28;31.70;;;13.07;;
25962;SDS011;13760;52.588;13.406;2023-05-06T01:11:44;24.83;;;13.30;;
25962;SDS011;13760;52.588;13.406;2023-05-06T01:14:20;21.25;;;12.75;;
25962;SDS011;13760;52.588;13.406;2023-05-06T01:16:57;25.83;;;13.32;;
25962;SDS011;13760;52.588;13.406;2023-05-06T01:19:36;23.88;;;13.10;;
25962;SDS011;13760;52.588;13.406;2023-05-06T01:22:06;21.40;;;12.60;;
25962;SDS011;13760;52.588;13.406;2023-05-06T01:24:40;31.55;;;12.38;;
25962;SDS011;13760;52.588;13.406;2023-05-06T01:27:07;19.42;;;12.10;;
25962;SDS011;13760;52.588;13.406;2023-05-06T01:29:34;26.38;;;13.15;;
25962;SDS011;13760;52.588;13.406;2023-05-06T01:35:14;17.95;;;12.00;;
25962;SDS011;13760;52.588;13.406;2023-05-06T01:43:36;25.33;;;11.23;;
25962;SDS011;13760;52.588;13.406;2023-05-06T01:46:05;24.50;;;12.68;;
25962;SDS011;13760;52.588;13.406;2023-05-06T01:48:33;22.25;;;12.80;;
25962;SDS011;13760;52.588;13.406;2023-05-06T01:51:01;23.50;;;13.18;;
25962;SDS011;13760;52.588;13.406;2023-05-06T01:53:27;23.90;;;13.13;;
25962;SDS011;13760;52.588;13.406;2023-05-06T01:55:52;23.33;;;13.32;;
25962;SDS011;13760;52.588;13.406;2023-05-06T01:58:18;24.83;;;13.02;;
25962;SDS011;13760;52.588;13.406;2023-05-06T02:00:43;21.80;;;13.13;;
25962;SDS011;13760;52.588;13.406;2023-05-06T02:03:09;21.73;;;12.30;;
25962;SDS011;13760;52.588;13.406;2023-05-06T02:05:34;23.25;;;12.45;;
25962;SDS011;13760;52.588;13.406;2023-05-06T02:08:00;23.63;;;12.70;;
25962;SDS011;13760;52.588;13.406;2023-05-06T02:10:25;27.23;;;12.68;;
25962;SDS011;13760;52.588;13.406;2023-05-06T02:12:51;26.35;;;14.77;;
25962;SDS011;13760;52.588;13.406;2023-05-06T02:15:16;21.90;;;12.38;;
25962;SDS011;13760;52.588;13.406;2023-05-06T02:17:42;20.33;;;13.70;;
25962;SDS011;13760;52.588;13.406;2023-05-06T02:20:08;22.92;;;13.35;;
25962;SDS011;13760;52.588;13.406;2023-05-06T02:22:33;28.33;;;13.93;;
25962;SDS011;13760;52.588;13.406;2023-05-06T02:24:59;31.60;;;13.68;;
25962;SDS011;13760;52.588;13.406;2023-05-06T02:27:25;22.27;;;12.65;;
25962;SDS011;13760;52.588;13.406;2023-05-06T02:29:51;27.90;;;14.85;;
25962;SDS011;13760;52.588;13.406;2023-05-06T02:32:16;25.58;;;13.82;;
25962;SDS011;13760;52.588;13.406;2023-05-06T02:34:42;25.77;;;13.93;;
25962;SDS011;13760;52.588;13.406;2023-05-06T02:37:07;31.42;;;15.25;;
25962;SDS011;13760;52.588;13.406;2023-05-06T02:39:33;30.92;;;15.82;;
25962;SDS011;13760;52.588;13.406;2023-05-06T02:41:58;31.33;;;14.75;;
25962;SDS011;13760;52.588;13.406;2023-05-06T02:44:24;26.55;;;14.70;;
25962;SDS011;13760;52.588;13.406;2023-05-06T02:46:50;27.63;;;15.18;;
25962;SDS011;13760;52.588;13.406;2023-05-06T02:49:15;25.25;;;14.30;;
25962;SDS011;13760;52.588;13.406;2023-05-06T02:51:41;30.23;;;14.75;;
25962;SDS011;13760;52.588;13.406;2023-05-06T02:54:06;34.65;;;16.20;;
25962;SDS011;13760;52.588;13.406;2023-05-06T02:56:32;25.52;;;14.38;;
25962;SDS011;13760;52.588;13.406;2023-05-06T02:58:57;29.83;;;15.48;;
25962;SDS011;13760;52.588;13.406;2023-05-06T03:01:23;26.02;;;14.85;;
25962;SDS011;13760;52.588;13.406;2023-05-06T03:03:48;30.08;;;15.73;;
25962;SDS011;13760;52.588;13.406;2023-05-06T03:06:14;27.55;;;14.98;;
25962;SDS011;13760;52.588;13.406;2023-05-06T03:08:40;27.90;;;13.82;;
25962;SDS011;13760;52.588;13.406;2023-05-06T03:11:06;31.80;;;16.40;;
25962;SDS011;13760;52.588;13.406;2023-05-06T03:13:33;34.10;;;16.88;;
25962;SDS011;13760;52.588;13.406;2023-05-06T03:15:59;26.80;;;15.15;;
25962;SDS011;13760;52.588;13.406;2023-05-06T03:18:26;33.30;;;15.32;;
25962;SDS011;13760;52.588;13.406;2023-05-06T03:20:51;31.77;;;14.95;;
25962;SDS011;13760;52.588;13.406;2023-05-06T03:23:17;38.65;;;16.10;;
25962;SDS011;13760;52.588;13.406;2023-05-06T03:25:42;23.38;;;14.23;;
25962;SDS011;13760;52.588;13.406;2023-05-06T03:28:08;29.48;;;14.82;;
25962;SDS011;13760;52.588;13.406;2023-05-06T03:30:34;31.42;;;15.65;;
25962;SDS011;13760;52.588;13.406;2023-05-06T03:33:00;25.90;;;15.73;;
25962;SDS011;13760;52.588;13.406;2023-05-06T03:35:25;28.25;;;15.80;;
25962;SDS011;13760;52.588;13.406;2023-05-06T03:37:51;28.33;;;15.02;;
25962;SDS011;13760;52.588;13.406;2023-05-06T03:40:17;26.73;;;15.35;;
25962;SDS011;13760;52.588;13.406;2023-05-06T03:42:43;28.73;;;15.35;;
25962;SDS011;13760;52.588;13.406;2023-05-06T03:45:08;26.92;;;15.80;;
25962;SDS011;13760;52.588;13.406;2023-05-06T03:47:34;31.27;;;15.70;;
25962;SDS011;13760;52.588;13.406;2023-05-06T03:50:00;36.90;;;16.35;;
25962;SDS011;13760;52.588;13.406;2023-05-06T03:52:25;25.05;;;15.52;;
25962;SDS011;13760;52.588;13.406;2023-05-06T03:54:51;28.02;;;13.95;;
25962;SDS011;13760;52.588;13.406;2023-05-06T03:57:16;24.67;;;14.38;;
25962;SDS011;13760;52.588;13.406;2023-05-06T03:59:42;27.05;;;15.02;;
25962;SDS011;13760;52.588;13.406;2023-05-06T04:02:07;26.50;;;15.00;;
25962;SDS011;13760;52.588;13.406;2023-05-06T04:04:33;25.92;;;14.98;;
25962;SDS011;13760;52.588;13.406;2023-05-06T04:06:58;23.48;;;14.25;;
25962;SDS011;13760;52.588;13.406;2023-05-06T04:09:24;26.35;;;15.73;;
25962;SDS011;13760;52.588;13.406;2023-05-06T04:11:50;27.58;;;15.45;;
25962;SDS011;13760;52.588;13.406;2023-05-06T04:14:15;23.92;;;14.50;;
25962;SDS011;13760;52.588;13.406;2023-05-06T04:16:41;28.05;;;15.45;;
25962;SDS011;13760;52.588;13.406;2023-05-06T04:19:07;24.85;;;14.32;;
25962;SDS011;13760;52.588;13.406;2023-05-06T04:21:32;35.75;;;15.30;;
25962;SDS011;13760;52.588;13.406;2023-05-06T04:23:58;27.60;;;15.23;;
25962;SDS011;13760;52.588;13.406;2023-05-06T04:26:23;20.10;;;14.00;;
25962;SDS011;13760;52.588;13.406;2023-05-06T04:28:49;26.95;;;15.68;;
25962;SDS011;13760;52.588;13.406;2023-05-06T04:31:15;27.27;;;15.20;;
25962;SDS011;13760;52.588;13.406;2023-05-06T04:33:41;22.05;;;13.93;;
25962;SDS011;13760;52.588;13.406;2023-05-06T04:36:06;26.10;;;15.20;;
25962;SDS011;13760;52.588;13.406;2023-05-06T04:38:32;26.70;;;14.82;;
25962;SDS011;13760;52.588;13.406;2023-05-06T04:40:59;28.20;;;14.85;;
25962;SDS011;13760;52.588;13.406;2023-05-06T04:43:25;33.03;;;14.15;;
25962;SDS011;13760;52.588;13.406;2023-05-06T04:45:53;25.65;;;14.05;;
25962;SDS011;13760;52.588;13.406;2023-05-06T04:48:19;27.88;;;13.52;;
25962;SDS011;13760;52.588;13.406;2023-05-06T04:50:46;27.23;;;13.77;;
25962;SDS011;13760;52.588;13.406;2023-05-06T04:53:12;19.95;;;12.77;;
25962;SDS011;13760;52.588;13.406;2023-05-06T04:55:39;23.13;;;13.80;;
25962;SDS011;13760;52.588;13.406;2023-05-06T04:58:04;25.40;;;13.52;;
25962;SDS011;13760;52.588;13.406;2023-05-06T05:00:30;24.38;;;13.88;;
25962;SDS011;13760;52.588;13.406;2023-05-06T05:02:55;26.33;;;13.75;;
25962;SDS011;13760;52.588;13.406;2023-05-06T05:05:21;19.40;;;13.35;;
25962;SDS011;13760;52.588;13.406;2023-05-06T05:07:47;28.77;;;13.55;;
25962;SDS011;13760;52.588;13.406;2023-05-06T05:10:13;22.45;;;14.00;;
25962;SDS011;13760;52.588;13.406;2023-05-06T05:12:44;25.42;;;13.45;;
25962;SDS011;13760;52.588;13.406;2023-05-06T05:15:10;24.13;;;14.27;;
25962;SDS011;13760;52.588;13.406;2023-05-06T05:17:36;21.20;;;13.60;;
25962;SDS011;13760;52.588;13.406;2023-05-06T05:20:02;21.10;;;12.90;;
25962;SDS011;13760;52.588;13.406;2023-05-06T05:22:28;23.30;;;13.32;;
25962;SDS011;13760;52.588;13.406;2023-05-06T05:24:54;29.20;;;13.73;;
25962;SDS011;13760;52.588;13.406;2023-05-06T05:27:19;21.30;;;13.55;;
25962;SDS011;13760;52.588;13.406;2023-05-06T05:29:45;22.35;;;13.75;;
25962;SDS011;13760;52.588;13.406;2023-05-06T05:32:11;22.25;;;13.30;;
25962;SDS011;13760;52.588;13.406;2023-05-06T05:34:36;31.92;;;14.63;;
25962;SDS011;13760;52.588;13.406;2023-05-06T05:37:02;21.02;;;14.52;;
25962;SDS011;13760;52.588;13.406;2023-05-06T05:39:27;26.58;;;14.18;;
25962;SDS011;13760;52.588;13.406;2023-05-06T05:41:53;25.98;;;14.27;;
25962;SDS011;13760;52.588;13.406;2023-05-06T05:44:18;25.70;;;14.77;;
25962;SDS011;13760;52.588;13.406;2023-05-06T05:46:44;25.75;;;14.18;;
25962;SDS011;13760;52.588;13.406;2023-05-06T05:49:09;24.10;;;14.45;;
25962;SDS011;13760;52.588;13.406;2023-05-06T05:51:35;26.08;;;13.23;;
25962;SDS011;13760;52.588;13.406;2023-05-06T05:54:00;28.10;;;14.40;;
25962;SDS011;13760;52.588;13.406;2023-05-06T05:56:26;25.48;;;14.30;;
25962;SDS011;13760;52.588;13.406;2023-05-06T05:58:51;24.02;;;13.82;;
25962;SDS011;13760;52.588;13.406;2023-05-06T06:01:17;21.95;;;13.13;;
25962;SDS011;13760;52.588;13.406;2023-05-06T06:03:43;22.60;;;13.90;;
25962;SDS011;13760;52.588;13.406;2023-05-06T06:06:08;27.23;;;15.45;;
25962;SDS011;13760;52.588;13.406;2023-05-06T06:08:34;21.83;;;13.65;;
25962;SDS011;13760;52.588;13.406;2023-05-06T06:11:00;24.35;;;13.90;;
25962;SDS011;13760;52.588;13.406;2023-05-06T06:13:29;20.55;;;13.55;;
25962;SDS011;13760;52.588;13.406;2023-05-06T06:15:55;24.05;;;13.38;;
25962;SDS011;13760;52.588;13.406;2023-05-06T06:18:21;30.38;;;14.32;;
25962;SDS011;13760;52.588;13.406;2023-05-06T06:20:47;24.90;;;14.13;;
25962;SDS011;13760;52.588;13.406;2023-05-06T06:23:12;23.15;;;14.90;;
25962;SDS011;13760;52.588;13.406;2023-05-06T06:25:38;20.05;;;14.10;;
25962;SDS011;13760;52.588;13.406;2023-05-06T06:28:03;24.80;;;15.95;;
25962;SDS011;13760;52.588;13.406;2023-05-06T06:30:29;24.42;;;16.08;;
25962;SDS011;13760;52.588;13.406;2023-05-06T06:32:54;29.88;;;15.55;;
25962;SDS011;13760;52.588;13.406;2023-05-06T06:35:23;24.45;;;14.88;;
25962;SDS011;13760;52.588;13.406;2023-05-06T06:37:50;21.88;;;13.55;;
25962;SDS011;13760;52.588;13.406;2023-05-06T06:40:16;23.55;;;15.30;;
25962;SDS011;13760;52.588;13.406;2023-05-06T06:42:41;22.50;;;15.10;;
25962;SDS011;13760;52.588;13.406;2023-05-06T06:45:07;25.85;;;14.10;;
25962;SDS011;13760;52.588;13.406;2023-05-06T06:47:33;24.08;;;14.45;;
25962;SDS011;13760;52.588;13.406;2023-05-06T06:49:59;22.38;;;14.73;;
25962;SDS011;13760;52.588;13.406;2023-05-06T06:52:25;26.08;;;14.77;;
25962;SDS011;13760;52.588;13.406;2023-05-06T06:54:50;21.05;;;14.68;;
25962;SDS011;13760;52.588;13.406;2023-05-06T06:57:16;28.85;;;14.98;;
25962;SDS011;13760;52.588;13.406;2023-05-06T06:59:42;22.08;;;14.45;;
25962;SDS011;13760;52.588;13.406;2023-05-06T07:02:07;21.10;;;13.48;;
25962;SDS011;13760;52.588;13.406;2023-05-06T07:04:33;22.52;;;14.10;;
25962;SDS011;13760;52.588;13.406;2023-05-06T07:06:58;24.05;;;15.30;;
25962;SDS011;13760;52.588;13.406;2023-05-06T07:09:24;24.95;;;15.25;;
25962;SDS011;13760;52.588;13.406;2023-05-06T07:11:50;29.02;;;15.68;;
25962;SDS011;13760;52.588;13.406;2023-05-06T07:14:15;26.70;;;16.45;;
25962;SDS011;13760;52.588;13.406;2023-05-06T07:16:41;22.50;;;15.55;;
25962;SDS011;13760;52.588;13.406;2023-05-06T07:19:06;26.63;;;16.17;;
25962;SDS011;13760;52.588;13.406;2023-05-06T07:21:32;22.38;;;15.98;;
25962;SDS011;13760;52.588;13.406;2023-05-06T07:23:58;25.98;;;15.77;;
25962;SDS011;13760;52.588;13.406;2023-05-06T07:26:23;30.17;;;16.40;;
25962;SDS011;13760;52.588;13.406;2023-05-06T07:28:50;22.92;;;16.60;;
25962;SDS011;13760;52.588;13.406;2023-05-06T07:31:15;24.33;;;16.33;;
25962;SDS011;13760;52.588;13.406;2023-05-06T07:33:44;24.25;;;15.07;;
25962;SDS011;13760;52.588;13.406;2023-05-06T07:36:13;26.95;;;17.77;;
25962;SDS011;13760;52.588;13.406;2023-05-06T07:38:38;26.48;;;16.88;;
25962;SDS011;13760;52.588;13.406;2023-05-06T07:41:04;25.02;;;15.13;;
25962;SDS011;13760;52.588;13.406;2023-05-06T07:43:29;24.98;;;16.90;;
25962;SDS011;13760;52.588;13.406;2023-05-06T07:45:55;24.25;;;17.13;;
25962;SDS011;13760;52.588;13.406;2023-05-06T07:48:30;26.80;;;17.85;;
25962;SDS011;13760;52.588;13.406;2023-05-06T07:50:56;28.05;;;18.23;;
25962;SDS011;13760;52.588;13.406;2023-05-06T07:53:22;30.02;;;18.00;;
25962;SDS011;13760;52.588;13.406;2023-05-06T07:55:47;27.30;;;18.55;;
25962;SDS011;13760;52.588;13.406;2023-05-06T07:58:13;27.15;;;18.63;;
25962;SDS011;13760;52.588;13.406;2023-05-06T08:00:38;36.80;;;19.83;;
25962;SDS011;13760;52.588;13.406;2023-05-06T08:03:04;31.15;;;20.08;;
25962;SDS011;13760;52.588;13.406;2023-05-06T08:05:30;28.67;;;19.92;;
25962;SDS011;13760;52.588;13.406;2023-05-06T08:07:55;30.73;;;20.13;;
25962;SDS011;13760;52.588;13.406;2023-05-06T08:10:21;31.73;;;21.08;;
25962;SDS011;13760;52.588;13.406;2023-05-06T08:12:46;30.38;;;20.92;;
25962;SDS011;13760;52.588;13.406;2023-05-06T08:15:12;36.05;;;23.67;;
25962;SDS011;13760;52.588;13.406;2023-05-06T08:17:38;32.85;;;21.92;;
25962;SDS011;13760;52.588;13.406;2023-05-06T08:20:03;33.78;;;20.70;;
25962;SDS011;13760;52.588;13.406;2023-05-06T08:22:30;28.38;;;21.13;;
25962;SDS011;13760;52.588;13.406;2023-05-06T08:24:55;27.50;;;20.40;;
25962;SDS011;13760;52.588;13.406;2023-05-06T08:27:22;28.48;;;19.35;;
25962;SDS011;13760;52.588;13.406;2023-05-06T08:29:47;26.75;;;19.77;;
25962;SDS011;13760;52.588;13.406;2023-05-06T08:32:12;26.65;;;19.48;;
25962;SDS011;13760;52.588;13.406;2023-05-06T08:34:38;27.15;;;19.58;;
25962;SDS011;13760;52.588;13.406;2023-05-06T08:37:04;25.65;;;18.88;;
25962;SDS011;13760;52.588;13.406;2023-05-06T08:39:30;24.15;;;17.92;;
25962;SDS011;13760;52.588;13.406;2023-05-06T08:41:59;25.15;;;18.45;;
25962;SDS011;13760;52.588;13.406;2023-05-06T08:44:27;24.60;;;18.95;;
25962;SDS011;13760;52.588;13.406;2023-05-06T08:46:52;30.33;;;20.48;;
25962;SDS011;13760;52.588;13.406;2023-05-06T08:49:18;26.05;;;19.17;;
25962;SDS011;13760;52.588;13.406;2023-05-06T08:51:44;24.40;;;17.67;;
25962;SDS011;13760;52.588;13.406;2023-05-06T08:54:11;25.52;;;19.10;;
25962;SDS011;13760;52.588;13.406;2023-05-06T08:56:37;25.98;;;20.15;;
25962;SDS011;13760;52.588;13.406;2023-05-06T08:59:04;27.00;;;19.48;;
25962;SDS011;13760;52.588;13.406;2023-05-06T09:01:33;28.58;;;19.63;;
25962;SDS011;13760;52.588;13.406;2023-05-06T09:03:59;23.50;;;19.13;;
25962;SDS011;13760;52.588;13.406;2023-05-06T09:06:27;32.33;;;19.90;;
25962;SDS011;13760;52.588;13.406;2023-05-06T09:08:53;28.25;;;19.17;;
25962;SDS011;13760;52.588;13.406;2023-05-06T09:11:26;30.60;;;20.02;;
25962;SDS011;13760;52.588;13.406;2023-05-06T09:14:26;28.23;;;19.90;;
25962;SDS011;13760;52.588;13.406;2023-05-06T09:16:47;27.23;;;18.10;;
25962;SDS011;13760;52.588;13.406;2023-05-06T09:19:14;26.27;;;18.60;;
25962;SDS011;13760;52.588;13.406;2023-05-06T09:21:42;24.05;;;18.58;;
25962;SDS011;13760;52.588;13.406;2023-05-06T09:24:09;25.67;;;17.83;;
25962;SDS011;13760;52.588;13.406;2023-05-06T09:26:37;23.77;;;18.10;;
25962;SDS011;13760;52.588;13.406;2023-05-06T09:29:03;21.73;;;17.75;;
25962;SDS011;13760;52.588;13.406;2023-05-06T09:31:30;20.50;;;16.80;;
25962;SDS011;13760;52.588;13.406;2023-05-06T09:33:56;21.15;;;15.90;;
25962;SDS011;13760;52.588;13.406;2023-05-06T09:36:23;20.67;;;17.10;;
25962;SDS011;13760;52.588;13.406;2023-05-06T09:38:51;22.98;;;16.90;;
25962;SDS011;13760;52.588;13.406;2023-05-06T09:41:21;20.38;;;16.17;;
25962;SDS011;13760;52.588;13.406;2023-05-06T09:43:49;19.70;;;15.80;;
25962;SDS011;13760;52.588;13.406;2023-05-06T09:46:16;17.40;;;14.45;;
25962;SDS011;13760;52.588;13.406;2023-05-06T09:48:43;19.48;;;15.02;;
25962;SDS011;13760;52.588;13.406;2023-05-06T09:51:09;17.60;;;14.05;;
25962;SDS011;13760;52.588;13.406;2023-05-06T09:53:35;21.13;;;13.90;;
25962;SDS011;13760;52.588;13.406;2023-05-06T09:56:02;20.70;;;14.48;;
25962;SDS011;13760;52.588;13.406;2023-05-06T09:58:32;17.67;;;13.77;;
25962;SDS011;13760;52.588;13.406;2023-05-06T10:00:59;17.90;;;13.77;;
25962;SDS011;13760;52.588;13.406;2023-05-06T10:03:25;18.13;;;13.18;;
25962;SDS011;13760;52.588;13.406;2023-05-06T10:05:54;16.17;;;13.90;;
25962;SDS011;13760;52.588;13.406;2023-05-06T10:08:25;17.30;;;12.95;;
25962;SDS011;13760;52.588;13.406;2023-05-06T10:10:53;17.48;;;12.98;;
25962;SDS011;13760;52.588;13.406;2023-05-06T10:13:20;14.65;;;12.50;;
25962;SDS011;13760;52.588;13.406;2023-05-06T10:15:47;17.85;;;12.38;;
25962;SDS011;13760;52.588;13.406;2023-05-06T10:18:17;14.80;;;12.02;;
25962;SDS011;13760;52.588;13.406;2023-05-06T10:20:44;15.55;;;12.05;;
25962;SDS011;13760;52.588;13.406;2023-05-06T10:23:12;13.50;;;11.18;;
25962;SDS011;13760;52.588;13.406;2023-05-06T10:25:47;14.02;;;12.05;;
25962;SDS011;13760;52.588;13.406;2023-05-06T10:28:16;13.45;;;11.95;;
25962;SDS011;13760;52.588;13.406;2023-05-06T10:30:44;13.18;;;10.48;;
25962;SDS011;13760;52.588;13.406;2023-05-06T10:33:11;13.23;;;10.60;;
25962;SDS011;13760;52.588;13.406;2023-05-06T10:38:06;17.08;;;10.88;;
25962;SDS011;13760;52.588;13.406;2023-05-06T10:40:38;12.13;;;10.45;;
25962;SDS011;13760;52.588;13.406;2023-05-06T10:45:59;13.50;;;9.70;;
25962;SDS011;13760;52.588;13.406;2023-05-06T10:48:28;13.70;;;10.73;;
25962;SDS011;13760;52.588;13.406;2023-05-06T10:56:23;13.82;;;10.45;;
25962;SDS011;13760;52.588;13.406;2023-05-06T10:58:49;11.95;;;9.73;;
25962;SDS011;13760;52.588;13.406;2023-05-06T11:01:15;14.32;;;10.50;;
25962;SDS011;13760;52.588;13.406;2023-05-06T11:03:44;12.07;;;9.32;;
25962;SDS011;13760;52.588;13.406;2023-05-06T11:06:10;11.43;;;9.10;;
25962;SDS011;13760;52.588;13.406;2023-05-06T11:08:35;11.63;;;8.93;;
25962;SDS011;13760;52.588;13.406;2023-05-06T11:11:01;11.63;;;8.48;;
25962;SDS011;13760;52.588;13.406;2023-05-06T11:14:12;11.68;;;8.52;;
25962;SDS011;13760;52.588;13.406;2023-05-06T11:16:49;10.50;;;8.43;;
25962;SDS011;13760;52.588;13.406;2023-05-06T11:19:48;9.80;;;8.00;;
25962;SDS011;13760;52.588;13.406;2023-05-06T11:22:07;8.77;;;7.80;;
25962;SDS011;13760;52.588;13.406;2023-05-06T11:24:38;8.27;;;7.05;;
25962;SDS011;13760;52.588;13.406;2023-05-06T11:27:08;7.50;;;6.55;;
25962;SDS011;13760;52.588;13.406;2023-05-06T11:29:45;7.35;;;6.50;;
25962;SDS011;13760;52.588;13.406;2023-05-06T11:32:24;10.05;;;6.18;;
25962;SDS011;13760;52.588;13.406;2023-05-06T11:34:56;9.73;;;6.38;;
25962;SDS011;13760;52.588;13.406;2023-05-06T11:37:25;8.60;;;6.35;;
25962;SDS011;13760;52.588;13.406;2023-05-06T11:39:51;7.38;;;5.90;;
25962;SDS011;13760;52.588;13.406;2023-05-06T11:42:24;10.32;;;5.95;;
25962;SDS011;13760;52.588;13.406;2023-05-06T11:44:52;7.15;;;6.43;;
25962;SDS011;13760;52.588;13.406;2023-05-06T11:47:19;7.72;;;5.60;;
25962;SDS011;13760;52.588;13.406;2023-05-06T11:49:48;7.90;;;5.50;;
25962;SDS011;13760;52.588;13.406;2023-05-06T11:52:17;9.45;;;5.85;;
25962;SDS011;13760;52.588;13.406;2023-05-06T11:54:44;8.15;;;5.30;;
25962;SDS011;13760;52.588;13.406;2023-05-06T11:57:10;9.38;;;5.70;;
25962;SDS011;13760;52.588;13.406;2023-05-06T11:59:36;7.07;;;5.07;;
25962;SDS011;13760;52.588;13.406;2023-05-06T12:02:11;5.97;;;5.10;;
25962;SDS011;13760;52.588;13.406;2023-05-06T12:07:08;11.57;;;5.80;;
25962;SDS011;13760;52.588;13.406;2023-05-06T12:09:35;9.90;;;5.88;;
25962;SDS011;13760;52.588;13.406;2023-05-06T12:12:06;6.35;;;5.60;;
25962;SDS011;13760;52.588;13.406;2023-05-06T12:14:34;6.53;;;5.55;;
25962;SDS011;13760;52.588;13.406;2023-05-06T12:17:00;7.88;;;5.22;;
25962;SDS011;13760;52.588;13.406;2023-05-06T12:19:27;8.15;;;5.78;;
25962;SDS011;13760;52.588;13.406;2023-05-06T12:21:54;7.53;;;5.10;;
25962;SDS011;13760;52.588;13.406;2023-05-06T12:24:28;9.27;;;5.93;;
25962;SDS011;13760;52.588;13.406;2023-05-06T12:26:54;8.13;;;5.72;;
25962;SDS011;13760;52.588;13.406;2023-05-06T12:29:20;8.52;;;5.55;;
25962;SDS011;13760;52.588;13.406;2023-05-06T12:31:46;8.57;;;5.93;;
25962;SDS011;13760;52.588;13.406;2023-05-06T12:34:15;8.02;;;5.60;;
25962;SDS011;13760;52.588;13.406;2023-05-06T12:36:42;6.78;;;5.63;;
25962;SDS011;13760;52.588;13.406;2023-05-06T12:39:11;7.63;;;5.85;;
25962;SDS011;13760;52.588;13.406;2023-05-06T12:41:42;10.23;;;5.80;;
25962;SDS011;13760;52.588;13.406;2023-05-06T12:46:55;8.85;;;5.40;;
25962;SDS011;13760;52.588;13.406;2023-05-06T12:49:21;6.72;;;5.18;;
25962;SDS011;13760;52.588;13.406;2023-05-06T12:51:46;7.25;;;5.43;;
25962;SDS011;13760;52.588;13.406;2023-05-06T12:54:28;6.75;;;5.93;;
25962;SDS011;13760;52.588;13.406;2023-05-06T12:56:54;7.53;;;5.25;;
25962;SDS011;13760;52.588;13.406;2023-05-06T12:59:20;10.52;;;5.82;;
25962;SDS011;13760;52.588;13.406;2023-05-06T13:01:47;7.32;;;5.85;;
25962;SDS011;13760;52.588;13.406;2023-05-06T13:04:13;9.30;;;5.90;;
25962;SDS011;13760;52.588;13.406;2023-05-06T13:06:39;7.25;;;5.78;;
25962;SDS011;13760;52.588;13.406;2023-05-06T13:09:04;7.18;;;6.40;;
25962;SDS011;13760;52.588;13.406;2023-05-06T13:11:30;8.30;;;6.10;;
25962;SDS011;13760;52.588;13.406;2023-05-06T13:13:56;8.45;;;5.80;;
25962;SDS011;13760;52.588;13.406;2023-05-06T13:16:21;8.55;;;6.10;;
25962;SDS011;13760;52.588;13.406;2023-05-06T13:18:47;5.65;;;5.15;;
25962;SDS011;13760;52.588;13.406;2023-05-06T13:21:13;8.95;;;6.43;;
25962;SDS011;13760;52.588;13.406;2023-05-06T13:23:38;8.60;;;5.68;;
25962;SDS011;13760;52.588;13.406;2023-05-06T13:26:10;10.13;;;5.78;;
25962;SDS011;13760;52.588;13.406;2023-05-06T13:28:36;7.20;;;5.10;;
25962;SDS011;13760;52.588;13.406;2023-05-06T13:31:03;7.13;;;4.80;;
25962;SDS011;13760;52.588;13.406;2023-05-06T13:33:29;7.15;;;4.85;;
25962;SDS011;13760;52.588;13.406;2023-05-06T13:35:55;7.55;;;4.70;;
25962;SDS011;13760;52.588;13.406;2023-05-06T13:38:20;7.88;;;4.80;;
25962;SDS011;13760;52.588;13.406;2023-05-06T13:40:48;6.88;;;4.90;;
25962;SDS011;13760;52.588;13.406;2023-05-06T13:43:15;5.55;;;4.78;;
25962;SDS011;13760;52.588;13.406;2023-05-06T13:45:42;7.35;;;5.10;;
25962;SDS011;13760;52.588;13.406;2023-05-06T13:48:10;5.93;;;4.72;;
25962;SDS011;13760;52.588;13.406;2023-05-06T13:50:36;6.57;;;4.93;;
25962;SDS011;13760;52.588;13.406;2023-05-06T13:53:02;5.85;;;4.15;;
25962;SDS011;13760;52.588;13.406;2023-05-06T13:55:29;7.10;;;4.95;;
25962;SDS011;13760;52.588;13.406;2023-05-06T13:57:54;8.63;;;5.25;;
25962;SDS011;13760;52.588;13.406;2023-05-06T14:00:20;5.93;;;4.55;;
25962;SDS011;13760;52.588;13.406;2023-05-06T14:02:45;9.65;;;4.50;;
25962;SDS011;13760;52.588;13.406;2023-05-06T14:05:11;6.63;;;4.70;;
25962;SDS011;13760;52.588;13.406;2023-05-06T14:07:36;5.95;;;4.65;;
25962;SDS011;13760;52.588;13.406;2023-05-06T14:10:02;6.82;;;4.93;;
25962;SDS011;13760;52.588;13.406;2023-05-06T14:12:28;5.22;;;4.40;;
25962;SDS011;13760;52.588;13.406;2023-05-06T14:14:53;5.43;;;4.70;;
25962;SDS011;13760;52.588;13.406;2023-05-06T14:17:19;5.40;;;4.68;;
25962;SDS011;13760;52.588;13.406;2023-05-06T14:19:44;5.18;;;4.68;;
25962;SDS011;13760;52.588;13.406;2023-05-06T14:22:10;4.82;;;4.18;;
25962;SDS011;13760;52.588;13.406;2023-05-06T14:24:36;5.13;;;3.67;;
25962;SDS011;13760;52.588;13.406;2023-05-06T14:27:02;5.13;;;3.65;;
25962;SDS011;13760;52.588;13.406;2023-05-06T14:29:28;5.68;;;3.88;;
25962;SDS011;13760;52.588;13.406;2023-05-06T14:31:53;6.05;;;3.40;;
25962;SDS011;13760;52.588;13.406;2023-05-06T14:34:19;6.07;;;3.15;;
25962;SDS011;13760;52.588;13.406;2023-05-06T14:36:44;4.88;;;2.63;;
25962;SDS011;13760;52.588;13.406;2023-05-06T14:39:10;3.28;;;2.65;;
25962;SDS011;13760;52.588;13.406;2023-05-06T14:41:36;2.67;;;2.40;;